sensor_id;sensor_type;location;lat;lon;timestamp;P1;durP1;ratioP1;P2;durP2;ratioP2
71902;SDS011;59778;50.310;18.780;2022-11-15T00:15:38;102.50;;;26.53;;
71902;SDS011;59778;50.310;18.780;2022-11-15T00:31:01;142.27;;;24.27;;
71902;SDS011;59778;50.310;18.780;2022-11-15T00:46:23;110.13;;;22.87;;
71902;SDS011;59778;50.310;18.780;2022-11-15T01:01:44;111.70;;;24.30;;
71902;SDS011;59778;50.310;18.780;2022-11-15T01:17:05;80.40;;;20.10;;
71902;SDS011;59778;50.310;18.780;2022-11-15T01:32:26;81.80;;;20.93;;
71902;SDS011;59778;50.310;18.780;2022-11-15T01:47:48;88.90;;;21.07;;
71902;SDS011;59778;50.310;18.780;2022-11-15T02:03:13;79.00;;;22.00;;
71902;SDS011;59778;50.310;18.780;2022-11-15T02:18:35;69.73;;;19.47;;
71902;SDS011;59778;50.310;18.780;2022-11-15T02:34:08;77.93;;;20.57;;
71902;SDS011;59778;50.310;18.780;2022-11-15T02:49:35;53.63;;;18.87;;
71902;SDS011;59778;50.310;18.780;2022-11-15T03:05:02;63.50;;;17.00;;
71902;SDS011;59778;50.310;18.780;2022-11-15T03:20:31;87.80;;;20.00;;
71902;SDS011;59778;50.310;18.780;2022-11-15T03:35:55;99.03;;;22.40;;
71902;SDS011;59778;50.310;18.780;2022-11-15T03:51:16;136.63;;;22.77;;
71902;SDS011;59778;50.310;18.780;2022-11-15T04:06:38;89.73;;;23.63;;
71902;SDS011;59778;50.310;18.780;2022-11-15T04:21:59;109.03;;;24.23;;
71902;SDS011;59778;50.310;18.780;2022-11-15T04:37:39;68.40;;;23.30;;
71902;SDS011;59778;50.310;18.780;2022-11-15T04:53:00;84.23;;;20.53;;
71902;SDS011;59778;50.310;18.780;2022-11-15T05:08:21;86.43;;;20.90;;
71902;SDS011;59778;50.310;18.780;2022-11-15T05:23:43;117.37;;;21.10;;
71902;SDS011;59778;50.310;18.780;2022-11-15T05:39:04;125.30;;;23.97;;
71902;SDS011;59778;50.310;18.780;2022-11-15T05:54:27;171.07;;;31.83;;
71902;SDS011;59778;50.310;18.780;2022-11-15T06:09:48;113.73;;;27.87;;
71902;SDS011;59778;50.310;18.780;2022-11-15T06:25:09;188.70;;;69.63;;
71902;SDS011;59778;50.310;18.780;2022-11-15T06:40:32;71.43;;;26.07;;
71902;SDS011;59778;50.310;18.780;2022-11-15T06:55:58;65.77;;;26.00;;
71902;SDS011;59778;50.310;18.780;2022-11-15T07:11:19;86.00;;;30.03;;
71902;SDS011;59778;50.310;18.780;2022-11-15T07:26:41;74.53;;;27.53;;
71902;SDS011;59778;50.310;18.780;2022-11-15T07:42:02;70.63;;;25.30;;
71902;SDS011;59778;50.310;18.780;2022-11-15T07:57:42;74.40;;;30.40;;
71902;SDS011;59778;50.310;18.780;2022-11-15T08:13:04;74.80;;;32.73;;
71902;SDS011;59778;50.310;18.780;2022-11-15T08:28:28;67.43;;;28.83;;
71902;SDS011;59778;50.310;18.780;2022-11-15T08:43:49;61.00;;;27.23;;
71902;SDS011;59778;50.310;18.780;2022-11-15T08:59:11;59.33;;;28.67;;
71902;SDS011;59778;50.310;18.780;2022-11-15T09:14:32;52.97;;;23.70;;
71902;SDS011;59778;50.310;18.780;2022-11-15T09:29:54;46.27;;;21.80;;
71902;SDS011;59778;50.310;18.780;2022-11-15T10:00:47;36.97;;;17.47;;
71902;SDS011;59778;50.310;18.780;2022-11-15T10:31:37;37.53;;;18.13;;
71902;SDS011;59778;50.310;18.780;2022-11-15T10:47:06;39.30;;;20.00;;
71902;SDS011;59778;50.310;18.780;2022-11-15T11:18:25;37.97;;;19.03;;
71902;SDS011;59778;50.310;18.780;2022-11-15T11:49:46;25.40;;;13.50;;
71902;SDS011;59778;50.310;18.780;2022-11-15T13:07:07;38.20;;;16.83;;
71902;SDS011;59778;50.310;18.780;2022-11-15T13:23:02;38.57;;;17.53;;
71902;SDS011;59778;50.310;18.780;2022-11-15T13:38:32;37.53;;;18.17;;
71902;SDS011;59778;50.310;18.780;2022-11-15T13:54:06;48.53;;;20.87;;
71902;SDS011;59778;50.310;18.780;2022-11-15T14:09:39;45.63;;;19.33;;
71902;SDS011;59778;50.310;18.780;2022-11-15T14:40:28;59.17;;;27.43;;
71902;SDS011;59778;50.310;18.780;2022-11-15T14:55:49;53.17;;;23.30;;
71902;SDS011;59778;50.310;18.780;2022-11-15T15:11:14;64.67;;;29.63;;
71902;SDS011;59778;50.310;18.780;2022-11-15T15:26:43;98.50;;;40.20;;
71902;SDS011;59778;50.310;18.780;2022-11-15T15:42:04;140.13;;;59.90;;
71902;SDS011;59778;50.310;18.780;2022-11-15T15:57:25;150.57;;;63.97;;
71902;SDS011;59778;50.310;18.780;2022-11-15T16:12:47;146.53;;;63.80;;
71902;SDS011;59778;50.310;18.780;2022-11-15T16:28:27;137.13;;;58.37;;
71902;SDS011;59778;50.310;18.780;2022-11-15T16:43:49;185.77;;;74.27;;
71902;SDS011;59778;50.310;18.780;2022-11-15T16:59:15;108.23;;;48.93;;
71902;SDS011;59778;50.310;18.780;2022-11-15T17:14:37;97.53;;;43.83;;
71902;SDS011;59778;50.310;18.780;2022-11-15T17:29:58;108.30;;;47.60;;
71902;SDS011;59778;50.310;18.780;2022-11-15T17:45:19;124.80;;;50.10;;
71902;SDS011;59778;50.310;18.780;2022-11-15T18:00:40;154.17;;;63.47;;
71902;SDS011;59778;50.310;18.780;2022-11-15T18:16:03;158.03;;;67.93;;
71902;SDS011;59778;50.310;18.780;2022-11-15T18:31:27;142.43;;;61.67;;
71902;SDS011;59778;50.310;18.780;2022-11-15T18:46:49;140.10;;;60.03;;
71902;SDS011;59778;50.310;18.780;2022-11-15T19:02:10;155.50;;;66.80;;
71902;SDS011;59778;50.310;18.780;2022-11-15T19:17:32;162.03;;;71.63;;
71902;SDS011;59778;50.310;18.780;2022-11-15T19:32:53;170.93;;;74.60;;
71902;SDS011;59778;50.310;18.780;2022-11-15T19:48:15;176.80;;;75.47;;
71902;SDS011;59778;50.310;18.780;2022-11-15T20:03:37;190.67;;;79.47;;
71902;SDS011;59778;50.310;18.780;2022-11-15T20:18:59;187.00;;;78.53;;
71902;SDS011;59778;50.310;18.780;2022-11-15T20:34:20;182.30;;;76.50;;
71902;SDS011;59778;50.310;18.780;2022-11-15T20:49:41;164.57;;;68.87;;
71902;SDS011;59778;50.310;18.780;2022-11-15T21:05:04;162.93;;;70.23;;
71902;SDS011;59778;50.310;18.780;2022-11-15T21:20:25;187.47;;;77.43;;
71902;SDS011;59778;50.310;18.780;2022-11-15T21:35:47;163.43;;;71.30;;
71902;SDS011;59778;50.310;18.780;2022-11-15T21:51:10;154.30;;;68.23;;
71902;SDS011;59778;50.310;18.780;2022-11-15T22:06:32;146.17;;;62.70;;
71902;SDS011;59778;50.310;18.780;2022-11-15T22:21:54;165.90;;;71.30;;
71902;SDS011;59778;50.310;18.780;2022-11-15T22:37:15;176.27;;;70.37;;
71902;SDS011;59778;50.310;18.780;2022-11-15T22:52:36;154.80;;;66.80;;
71902;SDS011;59778;50.310;18.780;2022-11-15T23:07:57;149.13;;;64.70;;
71902;SDS011;59778;50.310;18.780;2022-11-15T23:23:18;127.70;;;55.97;;
71902;SDS011;59778;50.310;18.780;2022-11-15T23:38:40;127.97;;;52.23;;
71902;SDS011;59778;50.310;18.780;2022-11-15T23:54:01;118.67;;;50.60;;
